createdAt,value
2022-11-09T00:02:50.481Z,98550.38
2022-11-09T00:06:00.028Z,98541.56
2022-11-09T00:09:08.160Z,98538.28
2022-11-09T00:12:11.796Z,98533.91
2022-11-09T00:15:15.543Z,98537.47
2022-11-09T00:18:18.981Z,98536.66
2022-11-09T00:21:26.070Z,98542.66
2022-11-09T00:24:29.603Z,98523.75
2022-11-09T00:27:33.323Z,98530.06
2022-11-09T00:30:36.720Z,98537.19
2022-11-09T00:33:40.708Z,98530.06
2022-11-09T00:36:45.525Z,98525.09
2022-11-09T00:39:49.119Z,98523.47
2022-11-09T00:42:53.108Z,98524.56
2022-11-09T00:45:56.795Z,98525.69
2022-11-09T00:49:00.302Z,98524.56
2022-11-09T00:52:06.118Z,98536.38
2022-11-09T00:55:10.535Z,98531.97
2022-11-09T00:58:15.011Z,98523.75
2022-11-09T01:01:19.083Z,98525.69
2022-11-09T01:04:22.725Z,98531.97
2022-11-09T01:07:27.495Z,98530.06
2022-11-09T01:10:31.390Z,98523.75
2022-11-09T01:13:35.167Z,98521.00
2022-11-09T01:16:38.893Z,98517.44
2022-11-09T01:19:42.378Z,98516.34
2022-11-09T01:22:47.871Z,98524.56
2022-11-09T01:25:59.573Z,98522.34
2022-11-09T01:29:03.418Z,98512.78
2022-11-09T01:32:09.408Z,98517.44
2022-11-09T01:35:13.262Z,98522.94
2022-11-09T01:38:17.982Z,98519.09
2022-11-09T01:41:25.502Z,98511.97
2022-11-09T01:44:29.544Z,98516.91
2022-11-09T01:47:33.950Z,98512.25
2022-11-09T01:50:45.565Z,98508.09
2022-11-09T01:53:57.466Z,98511.97
2022-11-09T01:57:10.387Z,98512.78
2022-11-09T02:00:18.081Z,98508.69
2022-11-09T02:03:30.405Z,98520.19
2022-11-09T02:06:36.983Z,98518.06
2022-11-09T02:09:50.488Z,98511.44
2022-11-09T02:12:57.714Z,98507.09
2022-11-09T02:16:01.848Z,98518.06
2022-11-09T02:19:05.893Z,98506.56
2022-11-09T02:22:10.602Z,98507.09
2022-11-09T02:25:17.173Z,98504.63
2022-11-09T02:28:21.755Z,98509.31
2022-11-09T02:31:35.715Z,98497.22
2022-11-09T02:34:39.200Z,98502.19
2022-11-09T02:37:50.622Z,98500.78
2022-11-09T02:40:55.066Z,98493.44
2022-11-09T02:44:03.040Z,98497.00
2022-11-09T02:47:07.885Z,98496.19
2022-11-09T02:50:12.151Z,98494.53
2022-11-09T02:53:17.197Z,98489.88
2022-11-09T02:56:22.704Z,98496.75
2022-11-09T02:59:26.371Z,98502.25
2022-11-09T03:02:30.484Z,98502.25
2022-11-09T03:05:34.176Z,98502.78
2022-11-09T03:08:40.083Z,98505.53
2022-11-09T03:11:44.591Z,98501.16
2022-11-09T03:14:50.756Z,98497.88
2022-11-09T03:17:54.370Z,98497.59
2022-11-09T03:21:04.021Z,98490.97
2022-11-09T03:24:09.356Z,98484.69
2022-11-09T03:27:15.924Z,98484.16
2022-11-09T03:30:19.801Z,98483.03
2022-11-09T03:33:24.426Z,98477.03
2022-11-09T03:36:27.941Z,98490.75
2022-11-09T03:39:33.583Z,98488.84
2022-11-09T03:42:36.995Z,98480.91
2022-11-09T03:45:41.919Z,98486.38
2022-11-09T03:48:45.334Z,98484.44
2022-11-09T03:51:48.933Z,98492.38
2022-11-09T03:54:53.852Z,98486.91
2022-11-09T03:57:57.446Z,98489.13
2022-11-09T04:01:00.783Z,98488.84
2022-11-09T04:04:04.525Z,98474.81
2022-11-09T04:07:07.994Z,98491.28
2022-11-09T04:10:12.915Z,98489.06
2022-11-09T04:13:16.385Z,98483.56
2022-11-09T04:16:20.059Z,98480.00
2022-11-09T04:19:23.494Z,98481.94
2022-11-09T04:22:27.353Z,98472.59
2022-11-09T04:25:36.258Z,98476.38
2022-11-09T04:28:40.346Z,98474.22
2022-11-09T04:31:43.836Z,98466.00
2022-11-09T04:34:47.285Z,98467.63
2022-11-09T04:37:58.594Z,98468.66
2022-11-09T04:41:05.340Z,98465.41
2022-11-09T04:44:08.782Z,98470.06
2022-11-09T04:47:12.370Z,98472.00
2022-11-09T04:50:15.916Z,98474.75
2022-11-09T04:53:19.384Z,98471.19
2022-11-09T04:56:24.255Z,98468.66
2022-11-09T04:59:27.803Z,98470.28
2022-11-09T05:02:31.096Z,98472.41
2022-11-09T05:05:36.410Z,98472.94
2022-11-09T05:08:39.766Z,98464.41
2022-11-09T05:11:44.752Z,98471.53
2022-11-09T05:14:48.194Z,98476.22
2022-11-09T05:17:51.824Z,98474.56
2022-11-09T05:20:59.452Z,98482.81
2022-11-09T05:24:03.114Z,98483.34
2022-11-09T05:27:08.039Z,98485.06
2022-11-09T05:30:13.125Z,98492.75
2022-11-09T05:33:17.504Z,98485.19
2022-11-09T05:36:22.235Z,98490.06
2022-11-09T05:39:25.740Z,98496.19
2022-11-09T05:42:30.758Z,98484.16
2022-11-09T05:45:42.748Z,98490.38
2022-11-09T05:48:47.617Z,98494.66
2022-11-09T05:51:51.024Z,98493.41
2022-11-09T05:54:54.637Z,98494.44
2022-11-09T05:57:59.316Z,98501.47
2022-11-09T06:01:04.491Z,98494.03
2022-11-09T06:04:07.994Z,98505.19
2022-11-09T06:07:11.660Z,98508.47
2022-11-09T06:10:15.023Z,98509.78
2022-11-09T06:13:20.300Z,98501.75
2022-11-09T06:16:23.726Z,98505.31
2022-11-09T06:19:27.457Z,98508.56
2022-11-09T06:22:30.974Z,98504.69
2022-11-09T06:25:34.660Z,98512.63
2022-11-09T06:28:41.552Z,98497.44
2022-11-09T06:31:46.307Z,98503.22
2022-11-09T06:34:49.861Z,98494.97
2022-11-09T06:37:57.585Z,98505.38
2022-11-09T06:41:02.314Z,98502.63
2022-11-09T06:44:08.001Z,98506.19
2022-11-09T06:47:11.211Z,98500.69
2022-11-09T06:50:15.335Z,98503.13
2022-11-09T06:53:20.198Z,98499.25
2022-11-09T06:56:24.075Z,98489.88
2022-11-09T06:59:29.006Z,98486.50
2022-11-09T07:02:34.607Z,98490.09
2022-11-09T07:05:40.167Z,98479.53
2022-11-09T07:08:44.091Z,98490.88
2022-11-09T07:11:50.077Z,98486.38
2022-11-09T07:14:55.126Z,98481.19
2022-11-09T07:17:59.621Z,98489.44
2022-11-09T07:21:08.844Z,98500.13
2022-11-09T07:24:16.501Z,98496.06
2022-11-09T07:27:24.834Z,98493.00
2022-11-09T07:30:32.076Z,98502.88
2022-11-09T07:33:35.968Z,98495.75
2022-11-09T07:36:39.344Z,98494.63
2022-11-09T07:39:42.858Z,98496.25
2022-11-09T07:42:46.471Z,98508.91
2022-11-09T07:45:51.442Z,98500.34
2022-11-09T07:48:54.858Z,98497.91
2022-11-09T07:51:58.652Z,98498.72
2022-11-09T07:55:01.946Z,98500.66
2022-11-09T07:58:09.709Z,98495.66
2022-11-09T08:01:15.390Z,98502.47
2022-11-09T08:04:19.192Z,98495.66
2022-11-09T08:07:23.605Z,98484.63
2022-11-09T08:10:29.640Z,98480.75
2022-11-09T08:13:32.899Z,98475.25
2022-11-09T08:16:38.217Z,98481.28
2022-11-09T08:19:41.468Z,98472.19
2022-11-09T08:22:46.360Z,98478.50
2022-11-09T08:25:50.364Z,98472.19
2022-11-09T08:28:54.256Z,98476.88
2022-11-09T08:31:59.334Z,98473.81
2022-11-09T08:35:03.801Z,98476.88
2022-11-09T08:38:07.263Z,98467.50
2022-11-09T08:41:13.605Z,98479.63
2022-11-09T08:44:17.276Z,98472.19
2022-11-09T08:47:22.515Z,98482.09
2022-11-09T08:50:26.348Z,98481.28
2022-11-09T08:53:31.333Z,98489.53
2022-11-09T08:56:34.457Z,98482.91
2022-11-09T08:59:38.530Z,98491.16
2022-11-09T09:02:43.368Z,98489.69
2022-11-09T09:05:47.193Z,98484.53
2022-11-09T09:08:50.604Z,98477.88
2022-11-09T09:11:54.624Z,98494.38
2022-11-09T09:14:57.906Z,98493.56
2022-11-09T09:18:04.381Z,98494.38
2022-11-09T09:21:09.399Z,98491.63
2022-11-09T09:24:13.267Z,98496.66
2022-11-09T09:27:16.721Z,98493.91
2022-11-09T09:30:21.272Z,98488.06
2022-11-09T09:33:26.657Z,98499.06
2022-11-09T09:36:30.688Z,98483.72
2022-11-09T09:39:33.945Z,98500.22
2022-11-09T09:42:44.556Z,98495.19
2022-11-09T09:45:54.820Z,98479.50
2022-11-09T09:49:07.186Z,98488.88
2022-11-09T09:52:23.001Z,98493.25
2022-11-09T09:55:36.936Z,98499.06
2022-11-09T09:58:50.117Z,98483.72
2022-11-09T10:01:57.330Z,98495.84
2022-11-09T10:05:08.254Z,98486.47
2022-11-09T10:08:23.046Z,98485.66
2022-11-09T10:11:42.890Z,98493.56
2022-11-09T10:15:17.014Z,98490.50
2022-11-09T10:18:42.787Z,98475.44
2022-11-09T10:21:56.130Z,98476.56
2022-11-09T10:28:54.334Z,98464.25
2022-11-09T10:32:02.444Z,98473.00
2022-11-09T10:35:19.759Z,98481.78
2022-11-09T10:38:32.966Z,98474.63
2022-11-09T10:41:55.458Z,98482.41
2022-11-09T10:45:30.569Z,98464.75
2022-11-09T10:48:55.684Z,98471.38
2022-11-09T10:52:44.250Z,98451.16
2022-11-09T10:56:21.172Z,98457.63
2022-11-09T10:59:51.422Z,98459.25
2022-11-09T11:03:19.401Z,98454.56
2022-11-09T11:06:41.782Z,98464.25
2022-11-09T11:10:12.814Z,98457.00
2022-11-09T11:13:35.956Z,98488.72
2022-11-09T11:16:58.777Z,98477.69
2022-11-09T11:20:33.681Z,98479.50
2022-11-09T11:24:16.369Z,98468.47
2022-11-09T11:27:42.648Z,98484.03
2022-11-09T11:31:14.242Z,98474.63
2022-11-09T11:34:59.238Z,98488.72
2022-11-09T11:38:31.548Z,98476.88
2022-11-09T11:42:26.386Z,98485.31
2022-11-09T11:46:00.614Z,98479.63
2022-11-09T11:50:00.254Z,98472.38
2022-11-09T11:53:46.300Z,98473.00
2022-11-09T11:57:24.061Z,98478.50
2022-11-09T12:01:06.248Z,98471.06
2022-11-09T12:05:00.750Z,98470.41
2022-11-09T12:08:35.580Z,98482.91
2022-11-09T12:12:16.228Z,98473.19
2022-11-09T12:15:57.229Z,98474.00
2022-11-09T12:19:44.485Z,98466.84
2022-11-09T12:23:43.976Z,98462.97
2022-11-09T12:27:39.488Z,98456.66
2022-11-09T12:31:33.258Z,98444.97
2022-11-09T12:35:24.498Z,98453.09
2022-11-09T12:39:00.361Z,98461.19
2022-11-09T12:42:29.234Z,98451.59
2022-11-09T12:45:54.897Z,98453.22
2022-11-09T12:49:33.742Z,98455.38
2022-11-09T12:52:58.299Z,98474.13
2022-11-09T12:56:28.073Z,98471.38
2022-11-09T12:59:53.362Z,98468.63
2022-11-09T13:03:24.667Z,98473.81
2022-11-09T13:07:31.908Z,98472.38
2022-11-09T13:14:38.178Z,98477.75
2022-11-09T13:18:05.954Z,98487.56
2022-11-09T13:21:38.502Z,98474.16
2022-11-09T13:25:02.678Z,98457.09
2022-11-09T13:28:58.747Z,98467.78
2022-11-09T13:32:28.787Z,98463.47
2022-11-09T13:36:23.687Z,98456.53
2022-11-09T13:39:45.929Z,98466.69
2022-11-09T13:43:19.305Z,98466.03
2022-11-09T13:46:41.991Z,98474.13
2022-11-09T13:50:19.472Z,98484.53
2022-11-09T13:53:59.102Z,98473.19
2022-11-09T13:57:25.791Z,98480.75
2022-11-09T14:00:48.751Z,98484.31
2022-11-09T14:04:26.330Z,98476.28
2022-11-09T14:07:49.987Z,98473.63
2022-11-09T14:11:38.358Z,98474.94
2022-11-09T14:15:18.038Z,98480.75
2022-11-09T14:18:54.946Z,98462.63
2022-11-09T14:22:21.241Z,98456.59
2022-11-09T14:25:45.746Z,98467.63
2022-11-09T14:29:22.176Z,98461.50
2022-11-09T14:32:51.517Z,98457.09
2022-11-09T14:36:14.821Z,98462.94
2022-11-09T14:39:37.436Z,98466.50
2022-11-09T14:43:13.271Z,98462.63
2022-11-09T14:46:35.728Z,98471.19
2022-11-09T14:49:59.324Z,98471.50
2022-11-09T14:53:27.621Z,98466.50
2022-11-09T14:56:50.668Z,98465.97
2022-11-09T15:00:35.061Z,98469.75
2022-11-09T15:04:13.663Z,98472.81
2022-11-09T15:07:37.894Z,98468.53
2022-11-09T15:11:00.496Z,98472.41
2022-11-09T15:14:29.643Z,98475.66
2022-11-09T15:17:54.263Z,98487.00
2022-11-09T15:21:20.331Z,98482.59
2022-11-09T15:24:57.100Z,98482.00
2022-11-09T15:28:27.267Z,98474.69
2022-11-09T15:32:00.456Z,98483.63
2022-11-09T15:35:24.940Z,98494.44
2022-11-09T15:38:59.697Z,98486.38
2022-11-09T15:42:22.441Z,98482.59
2022-11-09T15:45:44.545Z,98486.19
2022-11-09T15:49:22.133Z,98493.81
2022-11-09T15:52:45.611Z,98486.50
2022-11-09T15:56:09.922Z,98479.38
2022-11-09T15:59:32.256Z,98481.81
2022-11-09T16:02:54.501Z,98482.94
2022-11-09T16:06:22.383Z,98479.38
2022-11-09T16:09:46.170Z,98471.94
2022-11-09T16:13:09.805Z,98469.50
2022-11-09T16:16:32.433Z,98472.25
2022-11-09T16:19:54.315Z,98461.22
2022-11-09T16:23:16.987Z,98454.09
2022-11-09T16:26:40.278Z,98457.66
2022-11-09T16:30:02.759Z,98462.34
2022-11-09T16:33:24.786Z,98457.97
2022-11-09T16:36:53.803Z,98475.31
2022-11-09T16:40:18.738Z,98477.25
2022-11-09T16:43:44.159Z,98472.25
2022-11-09T16:47:13.503Z,98478.88
2022-11-09T16:50:35.457Z,98490.19
2022-11-09T16:53:57.249Z,98486.94
2022-11-09T16:57:19.640Z,98483.06
2022-11-09T17:04:29.084Z,98478.16
2022-11-09T17:07:51.148Z,98474.28
2022-11-09T17:11:17.461Z,98473.97
2022-11-09T17:14:39.625Z,98476.22
2022-11-09T17:18:03.035Z,98487.75
2022-11-09T17:21:28.155Z,98477.03
2022-11-09T17:24:50.056Z,98482.84
2022-11-09T17:28:12.079Z,98472.66
2022-11-09T17:31:35.073Z,98475.41
2022-11-09T17:34:58.659Z,98460.84
2022-11-09T17:38:20.894Z,98454.50
2022-11-09T17:41:43.497Z,98462.78
2022-11-09T17:45:06.524Z,98459.72
2022-11-09T17:48:28.384Z,98459.19
2022-11-09T17:51:52.078Z,98476.53
2022-11-09T17:55:15.481Z,98454.81
2022-11-09T17:58:40.806Z,98457.28
2022-11-09T18:02:02.666Z,98465.84
2022-11-09T18:05:25.025Z,98468.59
2022-11-09T18:09:09.550Z,98463.06
2022-11-09T18:12:31.888Z,98451.59
2022-11-09T18:15:54.050Z,98444.16
2022-11-09T18:19:16.260Z,98463.41
2022-11-09T18:22:38.094Z,98469.72
2022-11-09T18:26:02.710Z,98462.25
2022-11-09T18:29:25.365Z,98468.09
2022-11-09T18:32:47.629Z,98472.44
2022-11-09T18:36:15.056Z,98479.59
2022-11-09T18:39:37.301Z,98476.38
2022-11-09T18:43:01.158Z,98474.41
2022-11-09T18:46:23.828Z,98478.28
2022-11-09T18:49:46.213Z,98481.88
2022-11-09T18:53:08.392Z,98482.69
2022-11-09T18:56:30.511Z,98484.63
2022-11-09T18:59:54.075Z,98483.81
2022-11-09T19:03:17.086Z,98481.06
2022-11-09T19:06:39.771Z,98481.06
2022-11-09T19:10:01.964Z,98483.81
2022-11-09T19:13:24.422Z,98491.41
2022-11-09T19:16:47.825Z,98494.38
2022-11-09T19:20:11.909Z,98485.28
2022-11-09T19:23:34.816Z,98491.31
2022-11-09T19:26:57.422Z,98497.31
2022-11-09T19:30:19.665Z,98504.16
2022-11-09T19:33:43.518Z,98498.00
2022-11-09T19:37:05.386Z,98510.63
2022-11-09T19:40:27.545Z,98502.38
2022-11-09T19:43:51.071Z,98515.03
2022-11-09T21:00:24.556Z,98513.84
2022-11-09T21:03:49.041Z,98524.22
2022-11-09T21:07:11.295Z,98523.81
2022-11-09T21:10:33.489Z,98517.44
2022-11-09T21:13:56.839Z,98519.09
2022-11-09T21:17:20.979Z,98524.88
2022-11-09T21:20:43.727Z,98526.63
2022-11-09T21:24:27.149Z,98528.84
2022-11-09T21:28:07.309Z,98538.34
2022-11-09T21:31:29.726Z,98530.16
2022-11-09T21:34:53.141Z,98530.59
2022-11-09T21:38:15.198Z,98533.81
2022-11-09T21:41:40.479Z,98544.81
2022-11-09T21:45:02.880Z,98539.53
2022-11-09T21:48:25.181Z,98540.34
2022-11-09T21:51:48.985Z,98549.63
2022-11-09T21:55:11.191Z,98551.25
2022-11-09T21:58:33.892Z,98551.41
2022-11-09T22:01:55.933Z,98554.56
2022-11-09T22:05:22.823Z,98562.41
2022-11-09T22:08:47.461Z,98563.72
2022-11-09T22:12:27.295Z,98562.91
2022-11-09T22:16:07.544Z,98551.91
2022-11-09T22:19:47.511Z,98551.59
2022-11-09T22:23:10.267Z,98560.66
2022-11-09T22:26:34.034Z,98558.41
2022-11-09T22:29:55.818Z,98566.16
2022-11-09T22:33:24.454Z,98560.97
2022-11-09T22:36:48.879Z,98562.91
2022-11-09T22:40:12.051Z,98574.75
2022-11-09T22:43:37.107Z,98562.59
2022-11-09T22:46:59.526Z,98563.72
2022-11-09T22:50:21.740Z,98572.28
2022-11-09T22:53:44.664Z,98574.22
2022-11-09T22:57:06.429Z,98569.22
2022-11-09T23:00:29.558Z,98562.91
2022-11-09T23:03:51.561Z,98572.13
2022-11-09T23:07:13.508Z,98583.75
2022-11-09T23:10:35.588Z,98583.75
2022-11-09T23:13:57.585Z,98577.63
2022-11-09T23:17:35.026Z,98590.25
2022-11-09T23:21:00.473Z,98582.31
2022-11-09T23:24:36.125Z,98581.81
2022-11-09T23:27:58.802Z,98577.72
2022-11-09T23:31:24.531Z,98586.81
2022-11-09T23:34:48.346Z,98591.50
2022-11-09T23:38:11.544Z,98590.97
2022-11-09T23:41:33.557Z,98592.09
2022-11-09T23:44:55.916Z,98600.34
2022-11-09T23:48:20.477Z,98596.78
2022-11-09T23:51:44.045Z,98602.28
2022-11-09T23:55:07.190Z,98599.84
2022-11-09T23:58:30.091Z,98610.84
